sensor_id;sensor_type;location;lat;lon;timestamp;P1;durP1;ratioP1;P2;durP2;ratioP2
20034;SDS011;10178;48.034;9.800;2023-07-13T00:01:26;4.10;;;3.22;;
20034;SDS011;10178;48.034;9.800;2023-07-13T00:03:52;3.95;;;3.17;;
20034;SDS011;10178;48.034;9.800;2023-07-13T00:06:18;7.57;;;3.63;;
20034;SDS011;10178;48.034;9.800;2023-07-13T00:08:45;3.80;;;3.00;;
20034;SDS011;10178;48.034;9.800;2023-07-13T00:11:12;4.43;;;3.30;;
20034;SDS011;10178;48.034;9.800;2023-07-13T00:13:39;7.60;;;3.33;;
20034;SDS011;10178;48.034;9.800;2023-07-13T00:16:05;3.03;;;2.80;;
20034;SDS011;10178;48.034;9.800;2023-07-13T00:18:34;6.60;;;3.00;;
20034;SDS011;10178;48.034;9.800;2023-07-13T00:20:59;5.03;;;3.10;;
20034;SDS011;10178;48.034;9.800;2023-07-13T00:23:30;15.95;;;3.33;;
20034;SDS011;10178;48.034;9.800;2023-07-13T00:26:02;3.55;;;2.90;;
20034;SDS011;10178;48.034;9.800;2023-07-13T00:28:29;4.50;;;3.30;;
20034;SDS011;10178;48.034;9.800;2023-07-13T00:30:55;3.45;;;3.10;;
20034;SDS011;10178;48.034;9.800;2023-07-13T00:33:21;4.80;;;3.30;;
20034;SDS011;10178;48.034;9.800;2023-07-13T00:35:48;5.00;;;3.55;;
20034;SDS011;10178;48.034;9.800;2023-07-13T00:38:14;5.38;;;3.85;;
20034;SDS011;10178;48.034;9.800;2023-07-13T00:40:39;6.22;;;4.20;;
20034;SDS011;10178;48.034;9.800;2023-07-13T00:43:13;8.68;;;3.47;;
20034;SDS011;10178;48.034;9.800;2023-07-13T00:48:12;5.15;;;3.67;;
20034;SDS011;10178;48.034;9.800;2023-07-13T00:50:42;10.57;;;3.85;;
20034;SDS011;10178;48.034;9.800;2023-07-13T00:53:09;5.18;;;3.88;;
20034;SDS011;10178;48.034;9.800;2023-07-13T00:55:36;5.18;;;3.00;;
20034;SDS011;10178;48.034;9.800;2023-07-13T00:58:03;3.22;;;2.92;;
20034;SDS011;10178;48.034;9.800;2023-07-13T01:00:30;4.00;;;3.08;;
20034;SDS011;10178;48.034;9.800;2023-07-13T01:02:55;5.05;;;2.95;;
20034;SDS011;10178;48.034;9.800;2023-07-13T01:05:22;4.97;;;3.05;;
20034;SDS011;10178;48.034;9.800;2023-07-13T01:07:49;3.95;;;3.22;;
20034;SDS011;10178;48.034;9.800;2023-07-13T01:10:17;4.28;;;2.80;;
20034;SDS011;10178;48.034;9.800;2023-07-13T01:12:46;4.93;;;3.13;;
20034;SDS011;10178;48.034;9.800;2023-07-13T01:18:16;3.13;;;2.83;;
20034;SDS011;10178;48.034;9.800;2023-07-13T01:20:57;5.30;;;3.03;;
20034;SDS011;10178;48.034;9.800;2023-07-13T01:23:24;5.03;;;2.72;;
20034;SDS011;10178;48.034;9.800;2023-07-13T01:25:50;5.50;;;2.83;;
20034;SDS011;10178;48.034;9.800;2023-07-13T01:28:17;6.30;;;2.67;;
20034;SDS011;10178;48.034;9.800;2023-07-13T01:30:43;5.15;;;2.67;;
20034;SDS011;10178;48.034;9.800;2023-07-13T01:33:11;5.13;;;3.13;;
20034;SDS011;10178;48.034;9.800;2023-07-13T01:35:38;7.93;;;2.92;;
20034;SDS011;10178;48.034;9.800;2023-07-13T01:38:04;3.25;;;2.95;;
20034;SDS011;10178;48.034;9.800;2023-07-13T01:40:30;6.50;;;3.17;;
20034;SDS011;10178;48.034;9.800;2023-07-13T01:42:57;5.57;;;3.20;;
20034;SDS011;10178;48.034;9.800;2023-07-13T01:45:23;5.82;;;3.00;;
20034;SDS011;10178;48.034;9.800;2023-07-13T01:47:49;3.25;;;2.72;;
20034;SDS011;10178;48.034;9.800;2023-07-13T01:50:14;3.08;;;2.67;;
20034;SDS011;10178;48.034;9.800;2023-07-13T01:52:40;4.18;;;2.63;;
20034;SDS011;10178;48.034;9.800;2023-07-13T01:55:06;5.50;;;3.30;;
20034;SDS011;10178;48.034;9.800;2023-07-13T01:57:32;4.22;;;2.50;;
20034;SDS011;10178;48.034;9.800;2023-07-13T01:59:58;4.68;;;2.95;;
20034;SDS011;10178;48.034;9.800;2023-07-13T02:02:24;4.60;;;3.03;;
20034;SDS011;10178;48.034;9.800;2023-07-13T02:04:49;3.85;;;2.70;;
20034;SDS011;10178;48.034;9.800;2023-07-13T02:07:15;2.92;;;2.58;;
20034;SDS011;10178;48.034;9.800;2023-07-13T02:09:40;3.90;;;3.08;;
20034;SDS011;10178;48.034;9.800;2023-07-13T02:12:07;4.43;;;2.90;;
20034;SDS011;10178;48.034;9.800;2023-07-13T02:14:33;3.25;;;2.60;;
20034;SDS011;10178;48.034;9.800;2023-07-13T02:16:59;10.32;;;3.10;;
20034;SDS011;10178;48.034;9.800;2023-07-13T02:19:24;5.95;;;3.65;;
20034;SDS011;10178;48.034;9.800;2023-07-13T02:21:50;3.88;;;2.97;;
20034;SDS011;10178;48.034;9.800;2023-07-13T02:24:15;4.18;;;2.97;;
20034;SDS011;10178;48.034;9.800;2023-07-13T02:26:43;2.95;;;2.45;;
20034;SDS011;10178;48.034;9.800;2023-07-13T02:29:09;5.13;;;3.08;;
20034;SDS011;10178;48.034;9.800;2023-07-13T02:31:35;4.47;;;2.90;;
20034;SDS011;10178;48.034;9.800;2023-07-13T02:34:01;4.90;;;3.20;;
20034;SDS011;10178;48.034;9.800;2023-07-13T02:36:27;4.57;;;2.90;;
20034;SDS011;10178;48.034;9.800;2023-07-13T02:38:53;4.75;;;2.92;;
20034;SDS011;10178;48.034;9.800;2023-07-13T02:41:19;3.60;;;2.63;;
20034;SDS011;10178;48.034;9.800;2023-07-13T02:43:44;4.85;;;2.80;;
20034;SDS011;10178;48.034;9.800;2023-07-13T02:46:10;4.03;;;2.97;;
20034;SDS011;10178;48.034;9.800;2023-07-13T02:48:36;5.78;;;2.92;;
20034;SDS011;10178;48.034;9.800;2023-07-13T02:51:03;8.20;;;2.65;;
20034;SDS011;10178;48.034;9.800;2023-07-13T02:53:29;5.15;;;3.00;;
20034;SDS011;10178;48.034;9.800;2023-07-13T02:55:55;6.07;;;2.63;;
20034;SDS011;10178;48.034;9.800;2023-07-13T02:58:21;6.18;;;2.80;;
20034;SDS011;10178;48.034;9.800;2023-07-13T03:00:47;5.63;;;3.00;;
20034;SDS011;10178;48.034;9.800;2023-07-13T03:03:15;4.63;;;2.70;;
20034;SDS011;10178;48.034;9.800;2023-07-13T03:05:42;3.20;;;2.90;;
20034;SDS011;10178;48.034;9.800;2023-07-13T03:08:09;3.70;;;2.88;;
20034;SDS011;10178;48.034;9.800;2023-07-13T03:10:36;4.38;;;2.92;;
20034;SDS011;10178;48.034;9.800;2023-07-13T03:13:02;2.90;;;2.60;;
20034;SDS011;10178;48.034;9.800;2023-07-13T03:15:28;4.78;;;3.03;;
20034;SDS011;10178;48.034;9.800;2023-07-13T03:17:53;3.28;;;2.72;;
20034;SDS011;10178;48.034;9.800;2023-07-13T03:20:19;4.55;;;3.30;;
20034;SDS011;10178;48.034;9.800;2023-07-13T03:22:45;2.92;;;2.60;;
20034;SDS011;10178;48.034;9.800;2023-07-13T03:25:10;5.90;;;2.88;;
20034;SDS011;10178;48.034;9.800;2023-07-13T03:27:36;4.50;;;2.60;;
20034;SDS011;10178;48.034;9.800;2023-07-13T03:30:03;5.90;;;3.15;;
20034;SDS011;10178;48.034;9.800;2023-07-13T03:32:29;3.97;;;2.67;;
20034;SDS011;10178;48.034;9.800;2023-07-13T03:34:55;4.95;;;3.42;;
20034;SDS011;10178;48.034;9.800;2023-07-13T03:37:21;3.78;;;3.20;;
20034;SDS011;10178;48.034;9.800;2023-07-13T03:39:46;3.78;;;2.88;;
20034;SDS011;10178;48.034;9.800;2023-07-13T03:42:12;5.78;;;2.97;;
20034;SDS011;10178;48.034;9.800;2023-07-13T03:44:38;7.10;;;3.05;;
20034;SDS011;10178;48.034;9.800;2023-07-13T03:47:05;7.78;;;3.55;;
20034;SDS011;10178;48.034;9.800;2023-07-13T03:49:31;6.55;;;3.95;;
20034;SDS011;10178;48.034;9.800;2023-07-13T03:51:57;6.00;;;3.38;;
20034;SDS011;10178;48.034;9.800;2023-07-13T03:54:22;8.18;;;2.97;;
20034;SDS011;10178;48.034;9.800;2023-07-13T03:56:48;3.90;;;3.17;;
20034;SDS011;10178;48.034;9.800;2023-07-13T03:59:14;6.38;;;3.30;;
20034;SDS011;10178;48.034;9.800;2023-07-13T04:01:39;5.72;;;2.95;;
20034;SDS011;10178;48.034;9.800;2023-07-13T04:04:05;3.95;;;3.10;;
20034;SDS011;10178;48.034;9.800;2023-07-13T04:06:32;4.80;;;3.08;;
20034;SDS011;10178;48.034;9.800;2023-07-13T04:08:58;6.38;;;3.17;;
20034;SDS011;10178;48.034;9.800;2023-07-13T04:11:26;5.82;;;3.00;;
20034;SDS011;10178;48.034;9.800;2023-07-13T04:13:54;5.55;;;3.15;;
20034;SDS011;10178;48.034;9.800;2023-07-13T04:16:20;6.88;;;2.88;;
20034;SDS011;10178;48.034;9.800;2023-07-13T04:18:47;6.45;;;3.10;;
20034;SDS011;10178;48.034;9.800;2023-07-13T04:21:14;5.32;;;3.13;;
20034;SDS011;10178;48.034;9.800;2023-07-13T04:23:40;4.43;;;3.13;;
20034;SDS011;10178;48.034;9.800;2023-07-13T04:26:06;5.57;;;3.08;;
20034;SDS011;10178;48.034;9.800;2023-07-13T04:28:32;7.15;;;3.15;;
20034;SDS011;10178;48.034;9.800;2023-07-13T04:30:58;6.47;;;3.03;;
20034;SDS011;10178;48.034;9.800;2023-07-13T04:33:24;4.55;;;3.00;;
20034;SDS011;10178;48.034;9.800;2023-07-13T04:35:51;6.82;;;3.53;;
20034;SDS011;10178;48.034;9.800;2023-07-13T04:38:25;6.47;;;3.20;;
20034;SDS011;10178;48.034;9.800;2023-07-13T04:40:57;7.70;;;2.85;;
20034;SDS011;10178;48.034;9.800;2023-07-13T04:43:27;5.60;;;2.75;;
20034;SDS011;10178;48.034;9.800;2023-07-13T04:45:54;5.70;;;2.95;;
20034;SDS011;10178;48.034;9.800;2023-07-13T04:48:20;7.13;;;3.22;;
20034;SDS011;10178;48.034;9.800;2023-07-13T04:50:46;5.45;;;2.92;;
20034;SDS011;10178;48.034;9.800;2023-07-13T04:53:12;5.43;;;3.13;;
20034;SDS011;10178;48.034;9.800;2023-07-13T04:55:39;4.10;;;2.80;;
20034;SDS011;10178;48.034;9.800;2023-07-13T04:58:05;4.82;;;2.88;;
20034;SDS011;10178;48.034;9.800;2023-07-13T05:00:31;4.13;;;2.90;;
20034;SDS011;10178;48.034;9.800;2023-07-13T05:02:57;5.55;;;2.70;;
20034;SDS011;10178;48.034;9.800;2023-07-13T05:05:24;4.45;;;2.97;;
20034;SDS011;10178;48.034;9.800;2023-07-13T05:07:51;5.32;;;2.78;;
20034;SDS011;10178;48.034;9.800;2023-07-13T05:10:17;6.85;;;2.97;;
20034;SDS011;10178;48.034;9.800;2023-07-13T05:12:42;8.50;;;3.00;;
20034;SDS011;10178;48.034;9.800;2023-07-13T05:15:09;9.30;;;3.83;;
20034;SDS011;10178;48.034;9.800;2023-07-13T05:17:34;2.75;;;2.50;;
20034;SDS011;10178;48.034;9.800;2023-07-13T05:20:00;3.25;;;2.70;;
20034;SDS011;10178;48.034;9.800;2023-07-13T05:22:26;2.97;;;2.50;;
20034;SDS011;10178;48.034;9.800;2023-07-13T05:24:51;7.28;;;3.13;;
20034;SDS011;10178;48.034;9.800;2023-07-13T05:27:17;6.00;;;2.80;;
20034;SDS011;10178;48.034;9.800;2023-07-13T05:29:43;4.38;;;2.72;;
20034;SDS011;10178;48.034;9.800;2023-07-13T05:32:09;7.70;;;3.40;;
20034;SDS011;10178;48.034;9.800;2023-07-13T05:34:35;4.10;;;2.60;;
20034;SDS011;10178;48.034;9.800;2023-07-13T05:37:00;3.05;;;2.75;;
20034;SDS011;10178;48.034;9.800;2023-07-13T05:39:26;5.38;;;3.10;;
20034;SDS011;10178;48.034;9.800;2023-07-13T05:41:52;3.08;;;2.65;;
20034;SDS011;10178;48.034;9.800;2023-07-13T05:44:18;5.53;;;2.90;;
20034;SDS011;10178;48.034;9.800;2023-07-13T05:46:44;3.78;;;2.40;;
20034;SDS011;10178;48.034;9.800;2023-07-13T05:49:10;6.45;;;2.30;;
20034;SDS011;10178;48.034;9.800;2023-07-13T05:51:36;7.15;;;3.40;;
20034;SDS011;10178;48.034;9.800;2023-07-13T05:54:01;7.57;;;3.58;;
20034;SDS011;10178;48.034;9.800;2023-07-13T05:56:27;7.50;;;2.67;;
20034;SDS011;10178;48.034;9.800;2023-07-13T05:58:53;4.78;;;2.80;;
20034;SDS011;10178;48.034;9.800;2023-07-13T06:01:18;3.45;;;2.45;;
20034;SDS011;10178;48.034;9.800;2023-07-13T06:03:45;4.60;;;3.00;;
20034;SDS011;10178;48.034;9.800;2023-07-13T06:06:11;3.67;;;2.60;;
20034;SDS011;10178;48.034;9.800;2023-07-13T06:08:38;6.20;;;2.70;;
20034;SDS011;10178;48.034;9.800;2023-07-13T06:11:14;6.18;;;2.20;;
20034;SDS011;10178;48.034;9.800;2023-07-13T06:13:42;5.65;;;2.67;;
20034;SDS011;10178;48.034;9.800;2023-07-13T06:16:09;4.78;;;2.60;;
20034;SDS011;10178;48.034;9.800;2023-07-13T06:18:35;2.90;;;2.45;;
20034;SDS011;10178;48.034;9.800;2023-07-13T06:21:09;3.60;;;2.58;;
20034;SDS011;10178;48.034;9.800;2023-07-13T06:23:37;5.45;;;2.22;;
20034;SDS011;10178;48.034;9.800;2023-07-13T06:26:04;4.55;;;2.38;;
20034;SDS011;10178;48.034;9.800;2023-07-13T06:28:30;5.95;;;2.20;;
20034;SDS011;10178;48.034;9.800;2023-07-13T06:30:57;4.70;;;2.10;;
20034;SDS011;10178;48.034;9.800;2023-07-13T06:33:24;5.40;;;2.20;;
20034;SDS011;10178;48.034;9.800;2023-07-13T06:35:49;2.78;;;2.13;;
20034;SDS011;10178;48.034;9.800;2023-07-13T06:38:15;3.45;;;1.90;;
20034;SDS011;10178;48.034;9.800;2023-07-13T06:40:41;6.65;;;1.95;;
20034;SDS011;10178;48.034;9.800;2023-07-13T06:43:06;3.90;;;2.08;;
20034;SDS011;10178;48.034;9.800;2023-07-13T06:45:35;3.15;;;2.33;;
20034;SDS011;10178;48.034;9.800;2023-07-13T06:48:12;5.13;;;2.05;;
20034;SDS011;10178;48.034;9.800;2023-07-13T06:50:38;6.05;;;2.20;;
20034;SDS011;10178;48.034;9.800;2023-07-13T06:53:03;3.08;;;1.88;;
20034;SDS011;10178;48.034;9.800;2023-07-13T06:55:29;3.50;;;1.88;;
20034;SDS011;10178;48.034;9.800;2023-07-13T06:57:55;4.00;;;1.85;;
20034;SDS011;10178;48.034;9.800;2023-07-13T07:00:20;1.85;;;1.73;;
20034;SDS011;10178;48.034;9.800;2023-07-13T07:02:46;3.63;;;1.58;;
20034;SDS011;10178;48.034;9.800;2023-07-13T07:05:11;2.38;;;1.70;;
20034;SDS011;10178;48.034;9.800;2023-07-13T07:07:37;5.43;;;1.83;;
20034;SDS011;10178;48.034;9.800;2023-07-13T07:10:03;1.77;;;1.50;;
20034;SDS011;10178;48.034;9.800;2023-07-13T07:12:29;2.90;;;1.50;;
20034;SDS011;10178;48.034;9.800;2023-07-13T07:14:55;2.90;;;1.83;;
20034;SDS011;10178;48.034;9.800;2023-07-13T07:17:20;2.85;;;1.50;;
20034;SDS011;10178;48.034;9.800;2023-07-13T07:19:46;2.17;;;1.70;;
20034;SDS011;10178;48.034;9.800;2023-07-13T07:22:12;2.95;;;1.70;;
20034;SDS011;10178;48.034;9.800;2023-07-13T07:24:37;1.58;;;1.48;;
20034;SDS011;10178;48.034;9.800;2023-07-13T07:27:03;1.80;;;1.70;;
20034;SDS011;10178;48.034;9.800;2023-07-13T07:29:29;2.90;;;1.52;;
20034;SDS011;10178;48.034;9.800;2023-07-13T07:31:55;9.70;;;1.73;;
20034;SDS011;10178;48.034;9.800;2023-07-13T07:34:20;2.00;;;1.52;;
20034;SDS011;10178;48.034;9.800;2023-07-13T07:36:46;2.30;;;1.48;;
20034;SDS011;10178;48.034;9.800;2023-07-13T07:39:12;1.30;;;1.20;;
20034;SDS011;10178;48.034;9.800;2023-07-13T07:41:37;2.90;;;1.67;;
20034;SDS011;10178;48.034;9.800;2023-07-13T07:44:03;5.13;;;1.60;;
20034;SDS011;10178;48.034;9.800;2023-07-13T07:46:29;3.38;;;1.73;;
20034;SDS011;10178;48.034;9.800;2023-07-13T07:48:55;1.90;;;1.60;;
20034;SDS011;10178;48.034;9.800;2023-07-13T07:51:21;2.53;;;1.90;;
20034;SDS011;10178;48.034;9.800;2023-07-13T07:53:47;3.00;;;1.48;;
20034;SDS011;10178;48.034;9.800;2023-07-13T07:56:13;3.05;;;1.58;;
20034;SDS011;10178;48.034;9.800;2023-07-13T07:58:41;3.17;;;1.48;;
20034;SDS011;10178;48.034;9.800;2023-07-13T08:01:07;4.97;;;1.50;;
20034;SDS011;10178;48.034;9.800;2023-07-13T08:03:33;1.77;;;1.38;;
20034;SDS011;10178;48.034;9.800;2023-07-13T08:05:59;3.03;;;1.60;;
20034;SDS011;10178;48.034;9.800;2023-07-13T08:08:24;4.43;;;1.70;;
20034;SDS011;10178;48.034;9.800;2023-07-13T08:10:51;5.00;;;1.60;;
20034;SDS011;10178;48.034;9.800;2023-07-13T08:13:17;4.93;;;1.80;;
20034;SDS011;10178;48.034;9.800;2023-07-13T08:15:42;2.47;;;1.50;;
20034;SDS011;10178;48.034;9.800;2023-07-13T08:18:08;2.78;;;1.52;;
20034;SDS011;10178;48.034;9.800;2023-07-13T08:20:36;6.95;;;1.75;;
20034;SDS011;10178;48.034;9.800;2023-07-13T08:23:03;5.15;;;1.65;;
20034;SDS011;10178;48.034;9.800;2023-07-13T08:25:29;3.65;;;1.50;;
20034;SDS011;10178;48.034;9.800;2023-07-13T08:27:54;3.55;;;1.42;;
20034;SDS011;10178;48.034;9.800;2023-07-13T08:30:20;3.50;;;1.75;;
20034;SDS011;10178;48.034;9.800;2023-07-13T08:32:46;7.68;;;2.60;;
20034;SDS011;10178;48.034;9.800;2023-07-13T08:35:11;1.42;;;1.30;;
20034;SDS011;10178;48.034;9.800;2023-07-13T08:37:39;5.57;;;1.80;;
20034;SDS011;10178;48.034;9.800;2023-07-13T08:40:05;4.57;;;1.80;;
20034;SDS011;10178;48.034;9.800;2023-07-13T08:42:39;5.45;;;1.65;;
20034;SDS011;10178;48.034;9.800;2023-07-13T08:45:19;7.53;;;1.90;;
20034;SDS011;10178;48.034;9.800;2023-07-13T08:47:56;2.25;;;1.42;;
20034;SDS011;10178;48.034;9.800;2023-07-13T08:50:34;4.53;;;2.10;;
20034;SDS011;10178;48.034;9.800;2023-07-13T08:53:03;7.53;;;1.48;;
20034;SDS011;10178;48.034;9.800;2023-07-13T08:55:30;4.05;;;1.90;;
20034;SDS011;10178;48.034;9.800;2023-07-13T08:58:02;3.67;;;1.70;;
20034;SDS011;10178;48.034;9.800;2023-07-13T09:00:37;4.05;;;2.00;;
20034;SDS011;10178;48.034;9.800;2023-07-13T09:03:07;4.63;;;1.80;;
20034;SDS011;10178;48.034;9.800;2023-07-13T09:05:45;3.97;;;1.63;;
20034;SDS011;10178;48.034;9.800;2023-07-13T09:13:45;5.13;;;1.75;;
20034;SDS011;10178;48.034;9.800;2023-07-13T09:16:19;9.55;;;1.80;;
20034;SDS011;10178;48.034;9.800;2023-07-13T09:18:47;8.73;;;2.00;;
20034;SDS011;10178;48.034;9.800;2023-07-13T09:21:17;8.02;;;2.10;;
20034;SDS011;10178;48.034;9.800;2023-07-13T09:23:47;4.90;;;1.50;;
20034;SDS011;10178;48.034;9.800;2023-07-13T09:26:19;5.20;;;1.60;;
20034;SDS011;10178;48.034;9.800;2023-07-13T09:28:54;3.40;;;1.65;;
20034;SDS011;10178;48.034;9.800;2023-07-13T09:31:33;5.18;;;2.00;;
20034;SDS011;10178;48.034;9.800;2023-07-13T09:34:04;1.65;;;1.48;;
20034;SDS011;10178;48.034;9.800;2023-07-13T09:36:37;3.95;;;1.60;;
20034;SDS011;10178;48.034;9.800;2023-07-13T09:44:16;2.28;;;1.42;;
20034;SDS011;10178;48.034;9.800;2023-07-13T09:46:54;3.00;;;1.45;;
20034;SDS011;10178;48.034;9.800;2023-07-13T09:49:24;3.25;;;1.73;;
20034;SDS011;10178;48.034;9.800;2023-07-13T09:52:09;3.25;;;1.73;;
20034;SDS011;10178;48.034;9.800;2023-07-13T09:54:36;6.07;;;1.55;;
20034;SDS011;10178;48.034;9.800;2023-07-13T09:57:04;3.40;;;2.00;;
20034;SDS011;10178;48.034;9.800;2023-07-13T09:59:45;1.98;;;1.40;;
20034;SDS011;10178;48.034;9.800;2023-07-13T10:02:28;2.85;;;1.40;;
20034;SDS011;10178;48.034;9.800;2023-07-13T10:07:29;6.00;;;1.73;;
20034;SDS011;10178;48.034;9.800;2023-07-13T10:09:56;3.25;;;1.45;;
20034;SDS011;10178;48.034;9.800;2023-07-13T10:12:23;7.03;;;1.70;;
20034;SDS011;10178;48.034;9.800;2023-07-13T10:14:51;14.27;;;2.10;;
20034;SDS011;10178;48.034;9.800;2023-07-13T10:17:25;3.08;;;1.42;;
20034;SDS011;10178;48.034;9.800;2023-07-13T10:19:55;5.95;;;2.35;;
20034;SDS011;10178;48.034;9.800;2023-07-13T10:22:32;5.10;;;1.48;;
20034;SDS011;10178;48.034;9.800;2023-07-13T10:25:16;4.10;;;1.80;;
20034;SDS011;10178;48.034;9.800;2023-07-13T10:27:45;6.45;;;1.88;;
20034;SDS011;10178;48.034;9.800;2023-07-13T10:32:47;3.03;;;1.70;;
20034;SDS011;10178;48.034;9.800;2023-07-13T10:35:15;3.83;;;1.50;;
20034;SDS011;10178;48.034;9.800;2023-07-13T10:37:51;5.28;;;1.60;;
20034;SDS011;10178;48.034;9.800;2023-07-13T10:40:24;3.75;;;1.20;;
20034;SDS011;10178;48.034;9.800;2023-07-13T10:43:00;2.45;;;1.20;;
20034;SDS011;10178;48.034;9.800;2023-07-13T10:45:31;4.90;;;1.40;;
20034;SDS011;10178;48.034;9.800;2023-07-13T10:47:59;5.63;;;1.50;;
20034;SDS011;10178;48.034;9.800;2023-07-13T10:50:26;3.90;;;1.70;;
20034;SDS011;10178;48.034;9.800;2023-07-13T10:52:55;6.82;;;1.40;;
20034;SDS011;10178;48.034;9.800;2023-07-13T10:58:22;9.80;;;1.95;;
20034;SDS011;10178;48.034;9.800;2023-07-13T11:09:03;11.43;;;2.47;;
20034;SDS011;10178;48.034;9.800;2023-07-13T11:12:00;11.70;;;2.20;;
20034;SDS011;10178;48.034;9.800;2023-07-13T11:15:03;3.08;;;1.73;;
20034;SDS011;10178;48.034;9.800;2023-07-13T11:22:47;7.68;;;2.08;;
20034;SDS011;10178;48.034;9.800;2023-07-13T11:27:52;5.43;;;1.65;;
20034;SDS011;10178;48.034;9.800;2023-07-13T11:33:10;4.32;;;2.17;;
20034;SDS011;10178;48.034;9.800;2023-07-13T11:41:26;4.32;;;1.80;;
20034;SDS011;10178;48.034;9.800;2023-07-13T11:44:02;4.93;;;1.35;;
20034;SDS011;10178;48.034;9.800;2023-07-13T11:46:46;4.65;;;2.30;;
20034;SDS011;10178;48.034;9.800;2023-07-13T11:49:16;4.03;;;1.90;;
20034;SDS011;10178;48.034;9.800;2023-07-13T11:51:45;9.63;;;2.13;;
20034;SDS011;10178;48.034;9.800;2023-07-13T11:57:12;3.92;;;1.90;;
20034;SDS011;10178;48.034;9.800;2023-07-13T11:59:56;4.38;;;1.50;;
20034;SDS011;10178;48.034;9.800;2023-07-13T12:02:29;5.95;;;1.60;;
20034;SDS011;10178;48.034;9.800;2023-07-13T12:04:58;6.25;;;1.80;;
20034;SDS011;10178;48.034;9.800;2023-07-13T12:07:27;3.67;;;1.67;;
20034;SDS011;10178;48.034;9.800;2023-07-13T12:10:00;2.58;;;1.63;;
20034;SDS011;10178;48.034;9.800;2023-07-13T12:12:29;5.57;;;1.42;;
20034;SDS011;10178;48.034;9.800;2023-07-13T12:14:55;5.90;;;1.73;;
20034;SDS011;10178;48.034;9.800;2023-07-13T12:17:22;7.07;;;1.40;;
20034;SDS011;10178;48.034;9.800;2023-07-13T12:19:50;4.30;;;1.30;;
20034;SDS011;10178;48.034;9.800;2023-07-13T12:22:17;6.15;;;1.80;;
20034;SDS011;10178;48.034;9.800;2023-07-13T12:24:45;2.10;;;1.50;;
20034;SDS011;10178;48.034;9.800;2023-07-13T12:27:23;4.43;;;1.50;;
20034;SDS011;10178;48.034;9.800;2023-07-13T12:32:26;3.92;;;1.40;;
20034;SDS011;10178;48.034;9.800;2023-07-13T12:34:53;2.63;;;1.58;;
20034;SDS011;10178;48.034;9.800;2023-07-13T12:37:21;2.53;;;1.77;;
20034;SDS011;10178;48.034;9.800;2023-07-13T12:39:48;3.78;;;1.55;;
20034;SDS011;10178;48.034;9.800;2023-07-13T12:42:22;1.83;;;1.38;;
20034;SDS011;10178;48.034;9.800;2023-07-13T12:45:00;3.75;;;1.30;;
20034;SDS011;10178;48.034;9.800;2023-07-13T12:47:28;4.85;;;1.63;;
20034;SDS011;10178;48.034;9.800;2023-07-13T12:49:58;3.33;;;1.60;;
20034;SDS011;10178;48.034;9.800;2023-07-13T12:55:03;3.58;;;1.33;;
20034;SDS011;10178;48.034;9.800;2023-07-13T12:57:31;3.08;;;1.73;;
20034;SDS011;10178;48.034;9.800;2023-07-13T12:59:56;4.13;;;1.80;;
20034;SDS011;10178;48.034;9.800;2023-07-13T13:04:52;2.83;;;1.50;;
20034;SDS011;10178;48.034;9.800;2023-07-13T13:07:20;2.42;;;1.67;;
20034;SDS011;10178;48.034;9.800;2023-07-13T13:09:45;4.65;;;1.70;;
20034;SDS011;10178;48.034;9.800;2023-07-13T13:12:12;7.35;;;1.50;;
20034;SDS011;10178;48.034;9.800;2023-07-13T13:14:38;4.47;;;1.60;;
20034;SDS011;10178;48.034;9.800;2023-07-13T13:17:04;4.88;;;1.50;;
20034;SDS011;10178;48.034;9.800;2023-07-13T13:19:44;3.13;;;1.80;;
20034;SDS011;10178;48.034;9.800;2023-07-13T13:22:10;5.13;;;1.77;;
20034;SDS011;10178;48.034;9.800;2023-07-13T13:24:36;2.40;;;1.83;;
20034;SDS011;10178;48.034;9.800;2023-07-13T13:27:02;4.93;;;1.83;;
20034;SDS011;10178;48.034;9.800;2023-07-13T13:29:27;3.65;;;1.80;;
20034;SDS011;10178;48.034;9.800;2023-07-13T13:31:54;2.30;;;1.80;;
20034;SDS011;10178;48.034;9.800;2023-07-13T13:34:20;2.70;;;1.85;;
20034;SDS011;10178;48.034;9.800;2023-07-13T13:36:50;4.00;;;1.83;;
20034;SDS011;10178;48.034;9.800;2023-07-13T13:39:24;3.17;;;1.50;;
20034;SDS011;10178;48.034;9.800;2023-07-13T13:41:55;1.73;;;1.48;;
20034;SDS011;10178;48.034;9.800;2023-07-13T13:44:21;3.08;;;1.60;;
20034;SDS011;10178;48.034;9.800;2023-07-13T13:46:48;2.17;;;1.80;;
20034;SDS011;10178;48.034;9.800;2023-07-13T13:49:19;5.00;;;1.80;;
20034;SDS011;10178;48.034;9.800;2023-07-13T13:51:50;3.67;;;1.92;;
20034;SDS011;10178;48.034;9.800;2023-07-13T13:54:17;4.70;;;1.55;;
20034;SDS011;10178;48.034;9.800;2023-07-13T13:56:44;2.17;;;1.42;;
20034;SDS011;10178;48.034;9.800;2023-07-13T13:59:12;5.18;;;1.58;;
20034;SDS011;10178;48.034;9.800;2023-07-13T14:01:38;4.38;;;1.70;;
20034;SDS011;10178;48.034;9.800;2023-07-13T14:04:06;4.50;;;1.80;;
20034;SDS011;10178;48.034;9.800;2023-07-13T14:06:34;2.78;;;1.40;;
20034;SDS011;10178;48.034;9.800;2023-07-13T14:09:00;4.43;;;1.67;;
20034;SDS011;10178;48.034;9.800;2023-07-13T14:11:27;2.95;;;1.70;;
20034;SDS011;10178;48.034;9.800;2023-07-13T14:13:56;2.65;;;1.50;;
20034;SDS011;10178;48.034;9.800;2023-07-13T14:16:25;2.92;;;1.67;;
20034;SDS011;10178;48.034;9.800;2023-07-13T14:18:54;2.42;;;1.42;;
20034;SDS011;10178;48.034;9.800;2023-07-13T14:21:23;2.35;;;1.83;;
20034;SDS011;10178;48.034;9.800;2023-07-13T14:23:49;3.00;;;1.50;;
20034;SDS011;10178;48.034;9.800;2023-07-13T14:26:19;1.70;;;1.27;;
20034;SDS011;10178;48.034;9.800;2023-07-13T14:28:48;3.00;;;1.70;;
20034;SDS011;10178;48.034;9.800;2023-07-13T14:31:16;5.13;;;1.70;;
20034;SDS011;10178;48.034;9.800;2023-07-13T14:33:49;2.88;;;1.60;;
20034;SDS011;10178;48.034;9.800;2023-07-13T14:36:29;2.60;;;1.60;;
20034;SDS011;10178;48.034;9.800;2023-07-13T14:38:57;4.32;;;1.73;;
20034;SDS011;10178;48.034;9.800;2023-07-13T14:41:23;5.78;;;1.50;;
20034;SDS011;10178;48.034;9.800;2023-07-13T14:43:50;2.47;;;1.50;;
20034;SDS011;10178;48.034;9.800;2023-07-13T14:49:15;8.30;;;1.90;;
20034;SDS011;10178;48.034;9.800;2023-07-13T14:51:50;4.05;;;1.85;;
20034;SDS011;10178;48.034;9.800;2023-07-13T14:54:15;4.30;;;1.73;;
20034;SDS011;10178;48.034;9.800;2023-07-13T14:56:41;2.78;;;1.48;;
20034;SDS011;10178;48.034;9.800;2023-07-13T14:59:07;4.80;;;1.90;;
20034;SDS011;10178;48.034;9.800;2023-07-13T15:01:33;3.92;;;1.70;;
20034;SDS011;10178;48.034;9.800;2023-07-13T15:04:02;3.60;;;1.67;;
20034;SDS011;10178;48.034;9.800;2023-07-13T15:06:29;3.95;;;1.80;;
20034;SDS011;10178;48.034;9.800;2023-07-13T15:08:56;6.53;;;1.70;;
20034;SDS011;10178;48.034;9.800;2023-07-13T15:11:22;2.40;;;1.50;;
20034;SDS011;10178;48.034;9.800;2023-07-13T15:13:48;4.07;;;1.60;;
20034;SDS011;10178;48.034;9.800;2023-07-13T15:16:15;3.80;;;1.88;;
20034;SDS011;10178;48.034;9.800;2023-07-13T15:18:48;4.38;;;1.70;;
20034;SDS011;10178;48.034;9.800;2023-07-13T15:21:18;7.05;;;1.50;;
20034;SDS011;10178;48.034;9.800;2023-07-13T15:23:46;2.67;;;1.40;;
20034;SDS011;10178;48.034;9.800;2023-07-13T15:26:12;2.70;;;1.45;;
20034;SDS011;10178;48.034;9.800;2023-07-13T15:28:40;4.95;;;1.65;;
20034;SDS011;10178;48.034;9.800;2023-07-13T15:31:17;3.88;;;1.58;;
20034;SDS011;10178;48.034;9.800;2023-07-13T15:33:53;1.80;;;1.50;;
20034;SDS011;10178;48.034;9.800;2023-07-13T15:36:22;6.95;;;1.90;;
20034;SDS011;10178;48.034;9.800;2023-07-13T15:38:53;3.42;;;1.52;;
20034;SDS011;10178;48.034;9.800;2023-07-13T15:41:26;3.65;;;1.48;;
20034;SDS011;10178;48.034;9.800;2023-07-13T15:43:54;3.08;;;2.05;;
20034;SDS011;10178;48.034;9.800;2023-07-13T15:46:23;2.10;;;1.60;;
20034;SDS011;10178;48.034;9.800;2023-07-13T15:48:50;5.03;;;1.70;;
20034;SDS011;10178;48.034;9.800;2023-07-13T15:51:21;3.70;;;1.58;;
20034;SDS011;10178;48.034;9.800;2023-07-13T15:53:49;2.05;;;1.40;;
20034;SDS011;10178;48.034;9.800;2023-07-13T15:56:23;6.43;;;1.95;;